createdAt,value
2018-11-06T00:02:35.016Z,9.10
2018-11-06T00:05:12.966Z,9.10
2018-11-06T00:07:48.223Z,9.10
2018-11-06T00:10:23.701Z,9.10
2018-11-06T00:12:59.355Z,9.00
2018-11-06T00:15:34.695Z,9.10
2018-11-06T00:18:10.192Z,9.00
2018-11-06T00:20:45.534Z,8.90
2018-11-06T00:23:20.772Z,8.90
2018-11-06T00:25:56.171Z,8.90
2018-11-06T00:28:31.474Z,8.70
2018-11-06T00:31:17.723Z,8.70
2018-11-06T00:34:03.362Z,8.70
2018-11-06T00:36:38.801Z,8.50
2018-11-06T00:39:14.251Z,8.50
2018-11-06T00:41:50.006Z,8.50
2018-11-06T00:44:25.541Z,8.40
2018-11-06T00:47:01.071Z,8.20
2018-11-06T00:49:36.391Z,8.20
2018-11-06T00:52:11.705Z,8.10
2018-11-06T00:54:47.101Z,8.00
2018-11-06T00:57:22.584Z,8.00
2018-11-06T00:59:58.526Z,7.80
2018-11-06T01:02:33.884Z,7.80
2018-11-06T01:05:10.342Z,7.80
2018-11-06T01:07:47.748Z,7.90
2018-11-06T01:10:23.041Z,7.90
2018-11-06T01:12:58.406Z,7.80
2018-11-06T01:15:33.582Z,7.90
2018-11-06T01:18:09.070Z,7.80
2018-11-06T01:20:44.422Z,7.80
2018-11-06T01:23:19.973Z,7.80
2018-11-06T01:25:55.703Z,7.80
2018-11-06T01:28:31.261Z,7.80
2018-11-06T01:31:06.581Z,7.80
2018-11-06T01:33:42.087Z,7.60
2018-11-06T01:36:17.563Z,7.50
2018-11-06T01:38:52.920Z,7.50
2018-11-06T01:41:28.259Z,7.40
2018-11-06T01:44:03.821Z,7.50
2018-11-06T01:46:39.444Z,7.60
2018-11-06T01:49:15.037Z,7.60
2018-11-06T01:51:50.653Z,7.50
2018-11-06T01:54:26.027Z,7.50
2018-11-06T01:57:01.343Z,7.50
2018-11-06T01:59:36.601Z,7.60
2018-11-06T02:02:11.912Z,7.50
2018-11-06T02:04:47.274Z,7.50
2018-11-06T02:07:22.590Z,7.70
2018-11-06T02:09:57.953Z,7.70
2018-11-06T02:12:33.335Z,7.60
2018-11-06T02:15:09.652Z,7.50
2018-11-06T02:17:45.531Z,7.50
2018-11-06T02:20:20.980Z,7.40
2018-11-06T02:22:56.584Z,7.20
2018-11-06T02:25:32.164Z,7.20
2018-11-06T02:28:07.764Z,7.20
2018-11-06T02:30:43.329Z,7.20
2018-11-06T02:33:18.976Z,7.10
2018-11-06T02:35:54.369Z,7.00
2018-11-06T02:38:29.748Z,7.00
2018-11-06T02:41:05.413Z,7.10
2018-11-06T02:43:40.520Z,7.20
2018-11-06T02:46:15.838Z,7.30
2018-11-06T02:48:51.154Z,7.30
2018-11-06T02:51:26.463Z,7.30
2018-11-06T02:54:01.588Z,7.30
2018-11-06T02:56:36.944Z,7.20
2018-11-06T02:59:12.372Z,7.20
2018-11-06T03:01:47.697Z,7.20
2018-11-06T03:04:23.192Z,7.30
2018-11-06T03:06:58.635Z,7.30
2018-11-06T03:09:33.946Z,7.20
2018-11-06T03:12:09.542Z,7.20
2018-11-06T03:14:44.965Z,7.20
2018-11-06T03:17:20.524Z,7.20
2018-11-06T03:19:56.061Z,7.30
2018-11-06T03:22:31.505Z,7.40
2018-11-06T03:25:07.331Z,7.40
2018-11-06T03:27:43.061Z,7.40
2018-11-06T03:30:18.405Z,7.40
2018-11-06T03:32:53.963Z,7.30
2018-11-06T03:35:29.272Z,7.30
2018-11-06T03:38:04.725Z,7.30
2018-11-06T03:40:40.106Z,7.30
2018-11-06T03:43:15.594Z,7.40
2018-11-06T03:45:51.128Z,7.30
2018-11-06T03:48:26.632Z,7.30
2018-11-06T03:51:01.984Z,7.20
2018-11-06T03:53:37.399Z,7.20
2018-11-06T03:56:12.822Z,7.20
2018-11-06T03:58:48.221Z,7.10
2018-11-06T04:01:23.868Z,7.20
2018-11-06T04:03:59.521Z,7.30
2018-11-06T04:06:35.165Z,7.50
2018-11-06T04:09:11.919Z,7.50
2018-11-06T04:11:47.243Z,7.70
2018-11-06T04:14:22.625Z,7.80
2018-11-06T04:16:58.081Z,7.90
2018-11-06T04:19:33.514Z,8.00
2018-11-06T04:22:09.054Z,8.10
2018-11-06T04:24:44.699Z,8.10
2018-11-06T04:27:20.052Z,8.10
2018-11-06T04:29:55.595Z,8.20
2018-11-06T04:32:31.142Z,8.20
2018-11-06T04:35:06.889Z,8.40
2018-11-06T04:37:42.413Z,8.50
2018-11-06T04:40:17.833Z,8.60
2018-11-06T04:42:53.222Z,8.60
2018-11-06T04:45:28.866Z,8.70
2018-11-06T04:48:04.415Z,8.80
2018-11-06T04:50:39.933Z,8.90
2018-11-06T04:53:15.806Z,8.90
2018-11-06T04:55:51.165Z,9.00
2018-11-06T04:58:26.647Z,9.00
2018-11-06T05:01:02.471Z,9.00
2018-11-06T05:03:41.863Z,9.00
2018-11-06T05:06:18.503Z,9.00
2018-11-06T05:08:53.997Z,9.10
2018-11-06T05:11:29.525Z,9.00
2018-11-06T05:14:05.866Z,9.10
2018-11-06T05:16:41.242Z,9.10
2018-11-06T05:19:16.624Z,9.10
2018-11-06T05:21:51.925Z,9.10
2018-11-06T05:24:27.353Z,9.10
2018-11-06T05:27:03.394Z,9.10
2018-11-06T05:29:39.085Z,9.10
2018-11-06T05:32:14.535Z,9.10
2018-11-06T05:34:50.183Z,9.10
2018-11-06T05:37:25.536Z,9.10
2018-11-06T05:40:12.109Z,9.10
2018-11-06T05:42:47.627Z,9.10
2018-11-06T05:45:23.022Z,9.10
2018-11-06T05:47:58.641Z,9.10
2018-11-06T05:50:34.172Z,9.00
2018-11-06T05:53:09.617Z,9.00
2018-11-06T05:55:44.996Z,9.10
2018-11-06T05:58:20.502Z,9.00
2018-11-06T06:00:55.924Z,9.00
2018-11-06T06:03:31.434Z,9.00
2018-11-06T06:06:06.889Z,9.00
2018-11-06T06:08:42.535Z,8.90
2018-11-06T06:11:18.236Z,8.90
2018-11-06T06:13:53.842Z,8.90
2018-11-06T06:16:29.374Z,8.90
2018-11-06T06:19:05.445Z,8.90
2018-11-06T06:21:40.924Z,8.80
2018-11-06T06:24:16.324Z,8.90
2018-11-06T06:26:51.738Z,8.90
2018-11-06T06:29:27.224Z,8.90
2018-11-06T06:32:02.501Z,8.80
2018-11-06T06:34:37.947Z,8.90
2018-11-06T06:37:13.435Z,8.90
2018-11-06T06:39:49.056Z,8.80
2018-11-06T06:42:24.437Z,8.80
2018-11-06T06:45:00.017Z,8.90
2018-11-06T06:47:35.508Z,8.80
2018-11-06T06:50:16.769Z,8.80
2018-11-06T06:52:52.206Z,8.80
2018-11-06T06:55:27.482Z,8.80
2018-11-06T06:58:03.121Z,8.80
2018-11-06T07:00:38.542Z,8.80
2018-11-06T07:03:14.011Z,8.70
2018-11-06T07:05:49.571Z,8.70
2018-11-06T07:08:25.001Z,8.70
2018-11-06T07:11:00.451Z,8.70
2018-11-06T07:13:35.764Z,8.70
2018-11-06T07:16:11.134Z,8.70
2018-11-06T07:18:46.790Z,8.80
2018-11-06T07:21:22.014Z,8.80
2018-11-06T07:23:57.761Z,8.80
2018-11-06T07:26:33.592Z,8.80
2018-11-06T07:29:09.020Z,8.80
2018-11-06T07:31:44.585Z,8.80
2018-11-06T07:34:19.892Z,8.70
2018-11-06T07:36:55.308Z,8.80
2018-11-06T07:39:30.709Z,8.90
2018-11-06T07:42:06.573Z,8.90
2018-11-06T07:44:41.925Z,8.90
2018-11-06T07:47:17.258Z,8.90
2018-11-06T07:49:52.524Z,8.90
2018-11-06T07:52:27.854Z,8.90
2018-11-06T07:55:03.282Z,8.90
2018-11-06T07:57:38.754Z,8.80
2018-11-06T08:00:18.473Z,8.90
2018-11-06T08:02:53.833Z,8.80
2018-11-06T08:05:29.430Z,8.80
2018-11-06T08:08:04.923Z,8.90
2018-11-06T08:10:40.314Z,8.90
2018-11-06T08:13:15.614Z,8.90
2018-11-06T08:15:51.055Z,9.00
2018-11-06T08:18:26.584Z,9.00
2018-11-06T08:21:02.232Z,8.90
2018-11-06T08:23:37.754Z,8.90
2018-11-06T08:26:13.504Z,8.90
2018-11-06T08:28:48.951Z,8.90
2018-11-06T08:31:24.710Z,8.90
2018-11-06T08:33:59.833Z,8.90
2018-11-06T08:36:35.250Z,8.90
2018-11-06T08:39:11.491Z,8.90
2018-11-06T08:41:46.952Z,9.00
2018-11-06T08:44:22.352Z,9.00
2018-11-06T08:46:57.991Z,9.10
2018-11-06T08:49:33.543Z,9.10
2018-11-06T08:52:09.192Z,9.10
2018-11-06T08:54:44.836Z,9.20
2018-11-06T08:57:20.179Z,9.20
2018-11-06T08:59:55.594Z,9.20
2018-11-06T09:02:31.084Z,9.10
2018-11-06T09:05:07.760Z,9.10
2018-11-06T09:07:43.438Z,9.10
2018-11-06T09:10:19.197Z,9.20
2018-11-06T09:12:55.281Z,9.30
2018-11-06T09:15:30.509Z,9.30
2018-11-06T09:18:06.235Z,9.30
2018-11-06T09:20:41.634Z,9.30
2018-11-06T09:23:17.291Z,9.30
2018-11-06T09:25:52.645Z,9.30
2018-11-06T09:28:28.003Z,9.30
2018-11-06T09:31:03.367Z,9.30
2018-11-06T09:33:38.823Z,9.40
2018-11-06T09:36:14.273Z,9.40
2018-11-06T09:38:49.591Z,9.40
2018-11-06T09:41:25.457Z,9.40
2018-11-06T09:44:00.751Z,9.30
2018-11-06T09:46:36.570Z,9.40
2018-11-06T09:49:12.208Z,9.50
2018-11-06T09:51:47.685Z,9.50
2018-11-06T09:54:23.293Z,9.60
2018-11-06T09:56:58.790Z,9.60
2018-11-06T09:59:34.165Z,9.60
2018-11-06T10:02:09.490Z,9.70
2018-11-06T10:04:44.924Z,9.60
2018-11-06T10:07:20.675Z,9.70
2018-11-06T10:09:55.950Z,9.70
2018-11-06T10:12:31.235Z,9.70
2018-11-06T10:15:08.036Z,9.90
2018-11-06T10:17:45.031Z,9.80
2018-11-06T10:20:21.233Z,9.90
2018-11-06T10:22:56.677Z,9.90
2018-11-06T10:25:32.075Z,10.00
2018-11-06T10:28:07.526Z,10.00
2018-11-06T10:30:42.745Z,9.90
2018-11-06T10:33:18.241Z,10.00
2018-11-06T10:35:53.519Z,10.10
2018-11-06T10:38:29.204Z,10.20
2018-11-06T10:41:04.719Z,10.20
2018-11-06T10:43:40.289Z,10.10
2018-11-06T10:46:15.792Z,10.10
2018-11-06T10:48:51.361Z,10.20
2018-11-06T10:51:26.861Z,10.20
2018-11-06T10:54:02.355Z,10.20
2018-11-06T10:56:38.079Z,10.20
2018-11-06T10:59:13.652Z,10.20
2018-11-06T11:01:54.091Z,10.20
2018-11-06T11:04:29.976Z,10.20
2018-11-06T11:07:05.192Z,10.30
2018-11-06T11:09:41.057Z,10.30
2018-11-06T11:12:16.689Z,10.40
2018-11-06T11:14:53.275Z,10.40
2018-11-06T11:17:28.638Z,10.50
2018-11-06T11:20:04.460Z,10.60
2018-11-06T11:22:40.134Z,10.60
2018-11-06T11:25:16.473Z,10.50
2018-11-06T11:27:51.716Z,10.60
2018-11-06T11:30:27.971Z,10.60
2018-11-06T11:33:03.984Z,10.60
2018-11-06T11:35:39.974Z,10.40
2018-11-06T11:38:16.004Z,10.40
2018-11-06T11:40:51.610Z,10.50
2018-11-06T11:43:27.271Z,10.50
2018-11-06T11:46:02.960Z,10.50
2018-11-06T11:48:38.660Z,10.50
2018-11-06T11:51:14.114Z,10.50
2018-11-06T11:53:49.425Z,10.60
2018-11-06T11:56:24.740Z,10.60
2018-11-06T11:59:00.330Z,10.60
2018-11-06T12:01:35.896Z,10.70
2018-11-06T12:04:11.243Z,10.80
2018-11-06T12:06:46.666Z,10.90
2018-11-06T12:09:22.122Z,11.00
2018-11-06T12:11:57.381Z,11.10
2018-11-06T12:14:32.928Z,11.10
2018-11-06T12:17:08.473Z,11.10
2018-11-06T12:19:44.067Z,11.10
2018-11-06T12:22:19.674Z,11.10
2018-11-06T12:24:54.969Z,11.20
2018-11-06T12:27:30.341Z,11.20
2018-11-06T12:30:07.322Z,11.30
2018-11-06T12:32:43.062Z,11.50
2018-11-06T12:35:18.653Z,11.40
2018-11-06T12:37:54.080Z,11.50
2018-11-06T12:40:29.430Z,11.60
2018-11-06T12:43:04.831Z,11.70
2018-11-06T12:45:40.506Z,11.70
2018-11-06T12:48:15.951Z,11.70
2018-11-06T12:50:51.598Z,11.60
2018-11-06T12:53:26.871Z,11.60
2018-11-06T12:56:02.385Z,11.60
2018-11-06T12:58:37.742Z,11.50
2018-11-06T13:01:13.192Z,11.50
2018-11-06T13:03:48.703Z,11.50
2018-11-06T13:06:24.093Z,11.50
2018-11-06T13:08:59.372Z,11.50
2018-11-06T13:11:34.852Z,11.50
2018-11-06T13:14:10.615Z,11.50
2018-11-06T13:16:46.278Z,11.60
2018-11-06T13:19:21.816Z,11.60
2018-11-06T13:21:57.302Z,11.70
2018-11-06T13:24:32.771Z,11.70
2018-11-06T13:27:08.151Z,11.90
2018-11-06T13:29:43.597Z,11.90
2018-11-06T13:32:19.168Z,12.00
2018-11-06T13:34:54.694Z,11.90
2018-11-06T13:37:29.993Z,11.90
2018-11-06T13:40:06.204Z,11.90
2018-11-06T13:42:41.950Z,11.90
2018-11-06T13:45:24.714Z,12.00
2018-11-06T13:48:00.151Z,12.00
2018-11-06T13:50:35.331Z,12.10
2018-11-06T13:53:11.539Z,12.00
2018-11-06T13:55:47.019Z,12.00
2018-11-06T13:58:22.276Z,12.00
2018-11-06T14:00:58.025Z,11.90
2018-11-06T14:03:33.651Z,11.80
2018-11-06T14:06:09.122Z,11.80
2018-11-06T14:08:44.555Z,11.70
2018-11-06T14:11:19.872Z,11.70
2018-11-06T14:13:55.317Z,11.60
2018-11-06T14:16:30.680Z,11.50
2018-11-06T14:19:06.113Z,11.50
2018-11-06T14:21:41.520Z,11.40
2018-11-06T14:24:16.851Z,11.30
2018-11-06T14:26:52.277Z,11.30
2018-11-06T14:29:27.676Z,11.30
2018-11-06T14:32:05.915Z,11.20
2018-11-06T14:34:41.364Z,11.10
2018-11-06T14:37:16.563Z,11.00
2018-11-06T14:39:52.125Z,10.90
2018-11-06T14:42:27.718Z,10.90
2018-11-06T14:45:03.113Z,10.80
2018-11-06T14:47:38.754Z,10.70
2018-11-06T14:50:14.258Z,10.60
2018-11-06T14:52:49.681Z,10.60
2018-11-06T14:55:25.070Z,10.50
2018-11-06T14:58:00.564Z,10.50
2018-11-06T15:00:36.059Z,10.50
2018-11-06T15:03:11.838Z,10.50
2018-11-06T15:05:47.275Z,10.40
2018-11-06T15:08:22.997Z,10.40
2018-11-06T15:10:58.460Z,10.40
2018-11-06T15:13:34.007Z,10.40
2018-11-06T15:16:09.684Z,10.40
2018-11-06T15:18:45.314Z,10.40
2018-11-06T15:21:20.745Z,10.40
2018-11-06T15:23:56.325Z,10.40
2018-11-06T15:26:31.926Z,10.50
2018-11-06T15:29:07.396Z,10.50
2018-11-06T15:31:42.740Z,10.60
2018-11-06T15:34:18.254Z,10.60
2018-11-06T15:36:53.621Z,10.60
2018-11-06T15:39:29.164Z,10.70
2018-11-06T15:42:04.669Z,10.60
2018-11-06T15:44:40.491Z,10.60
2018-11-06T15:47:16.026Z,10.60
2018-11-06T15:49:51.556Z,10.60
2018-11-06T15:52:27.110Z,10.60
2018-11-06T15:55:02.569Z,10.60
2018-11-06T15:57:38.262Z,10.60
2018-11-06T16:00:16.445Z,10.60
2018-11-06T16:02:52.171Z,10.60
2018-11-06T16:05:27.514Z,10.50
2018-11-06T16:08:03.270Z,10.50
2018-11-06T16:10:38.765Z,10.50
2018-11-06T16:13:14.448Z,10.50
2018-11-06T16:15:49.767Z,10.50
2018-11-06T16:18:25.153Z,10.60
2018-11-06T16:21:00.740Z,10.60
2018-11-06T16:23:36.327Z,10.50
2018-11-06T16:26:11.741Z,10.50
2018-11-06T16:28:47.112Z,10.50
2018-11-06T16:31:22.386Z,10.50
2018-11-06T16:33:57.993Z,10.40
2018-11-06T16:36:33.310Z,10.40
2018-11-06T16:39:10.421Z,10.40
2018-11-06T16:41:45.732Z,10.40
2018-11-06T16:44:21.071Z,10.40
2018-11-06T16:46:56.709Z,10.40
2018-11-06T16:49:32.489Z,10.30
2018-11-06T16:52:07.886Z,10.30
2018-11-06T16:54:43.231Z,10.30
2018-11-06T16:57:18.723Z,10.30
2018-11-06T16:59:54.252Z,10.30
2018-11-06T17:02:29.493Z,10.30
2018-11-06T17:05:05.551Z,10.40
2018-11-06T17:07:41.098Z,10.40
2018-11-06T17:10:17.027Z,10.40
2018-11-06T17:12:52.469Z,10.40
2018-11-06T17:15:28.073Z,10.40
2018-11-06T17:18:03.277Z,10.40
2018-11-06T17:20:38.601Z,10.50
2018-11-06T17:23:14.114Z,10.50
2018-11-06T17:25:49.571Z,10.40
2018-11-06T17:28:24.918Z,10.40
2018-11-06T17:31:00.300Z,10.40
2018-11-06T17:33:35.887Z,10.40
2018-11-06T17:36:11.628Z,10.40
2018-11-06T17:38:46.968Z,10.30
2018-11-06T17:41:22.494Z,10.30
2018-11-06T17:43:57.941Z,10.30
2018-11-06T17:46:33.915Z,10.30
2018-11-06T17:49:09.222Z,10.30
2018-11-06T17:51:44.734Z,10.30
2018-11-06T17:54:20.220Z,10.20
2018-11-06T17:56:55.739Z,10.20
2018-11-06T17:59:31.537Z,10.10
2018-11-06T18:02:07.472Z,10.10
2018-11-06T18:04:43.069Z,10.00
2018-11-06T18:07:18.436Z,10.00
2018-11-06T18:09:54.101Z,9.90
2018-11-06T18:12:29.544Z,9.90
2018-11-06T18:15:05.124Z,9.80
2018-11-06T18:17:40.954Z,9.70
2018-11-06T18:20:16.455Z,9.70
2018-11-06T18:22:51.833Z,9.60
2018-11-06T18:25:27.616Z,9.50
2018-11-06T18:28:03.060Z,9.40
2018-11-06T18:30:38.557Z,9.30
2018-11-06T18:33:14.041Z,9.30
2018-11-06T18:35:49.459Z,9.10
2018-11-06T18:38:25.050Z,9.10
2018-11-06T18:41:00.231Z,9.10
2018-11-06T18:43:35.583Z,9.10
2018-11-06T18:46:10.914Z,9.10
2018-11-06T18:48:46.653Z,9.00
2018-11-06T18:51:22.031Z,8.90
2018-11-06T18:53:57.460Z,8.90
2018-11-06T18:56:33.091Z,8.90
2018-11-06T18:59:08.407Z,8.90
2018-11-06T19:01:43.686Z,8.90
2018-11-06T19:04:19.268Z,8.70
2018-11-06T19:06:54.625Z,8.70
2018-11-06T19:09:30.233Z,8.60
2018-11-06T19:12:05.996Z,8.50
2018-11-06T19:14:41.532Z,8.50
2018-11-06T19:17:16.986Z,8.50
2018-11-06T19:19:52.323Z,8.50
2018-11-06T19:22:27.643Z,8.40
2018-11-06T19:25:02.997Z,8.50
2018-11-06T19:27:38.556Z,8.50
2018-11-06T19:30:17.793Z,8.40
2018-11-06T19:32:53.565Z,8.40
2018-11-06T19:35:29.204Z,8.30
2018-11-06T19:38:04.725Z,8.30
2018-11-06T19:40:40.308Z,8.20
2018-11-06T19:43:15.717Z,8.20
2018-11-06T19:45:51.196Z,8.20
2018-11-06T19:48:26.701Z,8.00
2018-11-06T19:51:02.294Z,8.10
2018-11-06T19:53:37.868Z,8.30
2018-11-06T19:56:13.299Z,8.30
2018-11-06T19:58:48.894Z,8.30
2018-11-06T20:01:24.360Z,8.30
2018-11-06T20:03:59.662Z,8.20
2018-11-06T20:06:34.915Z,8.10
2018-11-06T20:09:11.272Z,8.10
2018-11-06T20:11:46.786Z,8.10
2018-11-06T20:14:22.291Z,8.00
2018-11-06T20:16:57.630Z,8.00
2018-11-06T20:19:33.090Z,8.00
2018-11-06T20:22:08.557Z,8.00
2018-11-06T20:24:44.094Z,8.00
2018-11-06T20:27:20.020Z,8.00
2018-11-06T20:29:55.413Z,8.00
2018-11-06T20:32:31.053Z,8.00
2018-11-06T20:35:07.393Z,8.00
2018-11-06T20:37:42.949Z,8.00
2018-11-06T20:40:19.906Z,8.00
2018-11-06T20:42:55.509Z,8.00
2018-11-06T20:45:31.071Z,7.90
2018-11-06T20:48:06.358Z,7.90
2018-11-06T20:50:41.886Z,7.90
2018-11-06T20:53:17.336Z,7.90
2018-11-06T20:55:52.778Z,7.90
2018-11-06T20:58:28.417Z,7.90
2018-11-06T21:01:03.965Z,7.90
2018-11-06T21:03:39.181Z,7.80
2018-11-06T21:06:14.491Z,7.80
2018-11-06T21:08:49.976Z,7.80
2018-11-06T21:11:25.314Z,7.80
2018-11-06T21:14:00.773Z,7.90
2018-11-06T21:16:36.247Z,7.90
2018-11-06T21:19:12.031Z,7.80
2018-11-06T21:21:47.471Z,7.90
2018-11-06T21:24:22.770Z,8.00
2018-11-06T21:26:58.148Z,8.00
2018-11-06T21:29:33.554Z,8.00
2018-11-06T21:32:09.218Z,7.80
2018-11-06T21:34:44.624Z,7.70
2018-11-06T21:37:19.823Z,7.80
2018-11-06T21:39:55.211Z,7.90
2018-11-06T21:42:30.680Z,8.00
2018-11-06T21:45:06.911Z,8.00
2018-11-06T21:47:43.111Z,7.90
2018-11-06T21:50:18.793Z,7.90
2018-11-06T21:52:54.166Z,7.90
2018-11-06T21:55:29.875Z,7.90
2018-11-06T21:58:05.473Z,7.90
2018-11-06T22:00:40.939Z,7.80
2018-11-06T22:03:16.614Z,7.70
2018-11-06T22:05:52.077Z,7.70
2018-11-06T22:08:27.554Z,7.70
2018-11-06T22:11:02.994Z,7.70
2018-11-06T22:13:38.523Z,7.60
2018-11-06T22:16:14.198Z,7.60
2018-11-06T22:18:49.553Z,7.50
2018-11-06T22:21:25.296Z,7.60
2018-11-06T22:24:00.831Z,7.60
2018-11-06T22:26:36.491Z,7.60
2018-11-06T22:29:12.016Z,7.50
2018-11-06T22:31:47.766Z,7.40
2018-11-06T22:34:22.983Z,7.50
2018-11-06T22:36:58.524Z,7.50
2018-11-06T22:39:34.045Z,7.50
2018-11-06T22:42:09.410Z,7.60
2018-11-06T22:44:44.933Z,7.60
2018-11-06T22:47:20.541Z,7.50
2018-11-06T22:49:55.905Z,7.30
2018-11-06T22:52:31.221Z,7.40
2018-11-06T22:55:06.751Z,7.30
2018-11-06T22:57:42.374Z,7.40
2018-11-06T23:00:23.575Z,7.50
2018-11-06T23:02:59.053Z,7.50
2018-11-06T23:05:34.653Z,7.50
2018-11-06T23:08:15.194Z,7.50
2018-11-06T23:10:50.508Z,7.60
2018-11-06T23:13:26.510Z,7.50
2018-11-06T23:16:02.064Z,7.40
2018-11-06T23:18:37.449Z,7.50
2018-11-06T23:21:12.784Z,7.40
2018-11-06T23:23:48.201Z,7.40
2018-11-06T23:26:23.913Z,7.40
2018-11-06T23:28:59.521Z,7.30
2018-11-06T23:31:35.225Z,7.40
2018-11-06T23:34:10.904Z,7.30
2018-11-06T23:36:46.605Z,7.30
2018-11-06T23:39:22.354Z,7.20
2018-11-06T23:41:57.851Z,7.10
2018-11-06T23:44:33.396Z,7.10
2018-11-06T23:47:08.907Z,7.10
2018-11-06T23:49:45.265Z,7.20
2018-11-06T23:52:20.849Z,7.20
2018-11-06T23:54:56.365Z,7.30
2018-11-06T23:57:32.275Z,7.30
